sensor_id;sensor_type;location;lat;lon;timestamp;P1;durP1;ratioP1;P2;durP2;ratioP2
6527;SDS011;64597;42.664;23.256;2023-05-23T00:01:43;5.63;;;3.53;;
6527;SDS011;64597;42.664;23.256;2023-05-23T00:04:09;6.18;;;3.58;;
6527;SDS011;64597;42.664;23.256;2023-05-23T00:06:40;4.90;;;3.28;;
6527;SDS011;64597;42.664;23.256;2023-05-23T00:09:11;6.38;;;3.50;;
6527;SDS011;64597;42.664;23.256;2023-05-23T00:11:38;4.95;;;2.80;;
6527;SDS011;64597;42.664;23.256;2023-05-23T00:14:03;4.55;;;2.95;;
6527;SDS011;64597;42.664;23.256;2023-05-23T00:16:32;3.28;;;2.45;;
6527;SDS011;64597;42.664;23.256;2023-05-23T00:18:57;4.70;;;2.47;;
6527;SDS011;64597;42.664;23.256;2023-05-23T00:21:23;7.13;;;2.80;;
6527;SDS011;64597;42.664;23.256;2023-05-23T00:23:48;4.75;;;2.90;;
6527;SDS011;64597;42.664;23.256;2023-05-23T00:26:14;4.13;;;2.70;;
6527;SDS011;64597;42.664;23.256;2023-05-23T00:28:39;3.47;;;2.40;;
6527;SDS011;64597;42.664;23.256;2023-05-23T00:31:05;5.45;;;2.78;;
6527;SDS011;64597;42.664;23.256;2023-05-23T00:33:31;3.80;;;2.30;;
6527;SDS011;64597;42.664;23.256;2023-05-23T00:35:58;5.85;;;2.72;;
6527;SDS011;64597;42.664;23.256;2023-05-23T00:38:24;3.95;;;2.72;;
6527;SDS011;64597;42.664;23.256;2023-05-23T00:40:50;4.18;;;2.45;;
6527;SDS011;64597;42.664;23.256;2023-05-23T00:43:16;3.63;;;2.40;;
6527;SDS011;64597;42.664;23.256;2023-05-23T00:45:43;4.22;;;2.22;;
6527;SDS011;64597;42.664;23.256;2023-05-23T00:48:08;3.10;;;2.22;;
6527;SDS011;64597;42.664;23.256;2023-05-23T00:50:35;3.55;;;2.30;;
6527;SDS011;64597;42.664;23.256;2023-05-23T00:53:01;2.95;;;2.30;;
6527;SDS011;64597;42.664;23.256;2023-05-23T00:55:27;4.50;;;2.10;;
6527;SDS011;64597;42.664;23.256;2023-05-23T00:57:54;3.88;;;2.15;;
6527;SDS011;64597;42.664;23.256;2023-05-23T01:00:21;3.58;;;2.10;;
6527;SDS011;64597;42.664;23.256;2023-05-23T01:02:49;4.05;;;2.17;;
6527;SDS011;64597;42.664;23.256;2023-05-23T01:05:15;6.25;;;2.30;;
6527;SDS011;64597;42.664;23.256;2023-05-23T01:07:45;2.90;;;1.90;;
6527;SDS011;64597;42.664;23.256;2023-05-23T01:10:12;4.32;;;1.88;;
6527;SDS011;64597;42.664;23.256;2023-05-23T01:18:05;3.33;;;1.90;;
6527;SDS011;64597;42.664;23.256;2023-05-23T01:20:34;3.28;;;1.73;;
6527;SDS011;64597;42.664;23.256;2023-05-23T01:28:30;3.75;;;1.73;;
6527;SDS011;64597;42.664;23.256;2023-05-23T01:30:59;2.17;;;1.80;;
6527;SDS011;64597;42.664;23.256;2023-05-23T01:33:28;2.72;;;1.63;;
6527;SDS011;64597;42.664;23.256;2023-05-23T01:35:56;2.22;;;1.70;;
6527;SDS011;64597;42.664;23.256;2023-05-23T01:40:49;2.83;;;1.77;;
6527;SDS011;64597;42.664;23.256;2023-05-23T01:43:15;3.85;;;1.63;;
6527;SDS011;64597;42.664;23.256;2023-05-23T01:45:41;4.28;;;1.85;;
6527;SDS011;64597;42.664;23.256;2023-05-23T01:48:07;3.45;;;1.70;;
6527;SDS011;64597;42.664;23.256;2023-05-23T01:50:34;2.67;;;1.70;;
6527;SDS011;64597;42.664;23.256;2023-05-23T01:53:00;4.05;;;1.83;;
6527;SDS011;64597;42.664;23.256;2023-05-23T01:55:26;3.35;;;1.70;;
6527;SDS011;64597;42.664;23.256;2023-05-23T01:57:53;5.75;;;1.65;;
6527;SDS011;64597;42.664;23.256;2023-05-23T02:00:20;5.47;;;1.95;;
6527;SDS011;64597;42.664;23.256;2023-05-23T02:02:46;3.08;;;2.05;;
6527;SDS011;64597;42.664;23.256;2023-05-23T02:05:11;3.42;;;1.77;;
6527;SDS011;64597;42.664;23.256;2023-05-23T02:07:37;4.25;;;1.75;;
6527;SDS011;64597;42.664;23.256;2023-05-23T02:10:03;2.72;;;1.70;;
6527;SDS011;64597;42.664;23.256;2023-05-23T02:12:31;2.42;;;1.70;;
6527;SDS011;64597;42.664;23.256;2023-05-23T02:14:57;4.30;;;1.90;;
6527;SDS011;64597;42.664;23.256;2023-05-23T02:17:22;3.00;;;1.83;;
6527;SDS011;64597;42.664;23.256;2023-05-23T02:19:48;3.40;;;2.10;;
6527;SDS011;64597;42.664;23.256;2023-05-23T02:22:14;3.25;;;2.03;;
6527;SDS011;64597;42.664;23.256;2023-05-23T02:24:39;2.83;;;1.45;;
6527;SDS011;64597;42.664;23.256;2023-05-23T02:27:05;2.75;;;1.67;;
6527;SDS011;64597;42.664;23.256;2023-05-23T02:29:30;2.67;;;1.85;;
6527;SDS011;64597;42.664;23.256;2023-05-23T02:31:56;4.15;;;1.90;;
6527;SDS011;64597;42.664;23.256;2023-05-23T02:34:21;3.55;;;1.83;;
6527;SDS011;64597;42.664;23.256;2023-05-23T02:36:47;2.15;;;1.75;;
6527;SDS011;64597;42.664;23.256;2023-05-23T02:39:12;3.70;;;2.08;;
6527;SDS011;64597;42.664;23.256;2023-05-23T02:41:38;2.97;;;1.92;;
6527;SDS011;64597;42.664;23.256;2023-05-23T02:44:04;3.00;;;1.95;;
6527;SDS011;64597;42.664;23.256;2023-05-23T02:46:29;5.22;;;1.98;;
6527;SDS011;64597;42.664;23.256;2023-05-23T02:48:55;5.07;;;1.95;;
6527;SDS011;64597;42.664;23.256;2023-05-23T02:51:20;2.67;;;1.73;;
6527;SDS011;64597;42.664;23.256;2023-05-23T02:53:46;3.10;;;1.95;;
6527;SDS011;64597;42.664;23.256;2023-05-23T02:56:11;5.75;;;2.17;;
6527;SDS011;64597;42.664;23.256;2023-05-23T02:58:37;4.97;;;2.20;;
6527;SDS011;64597;42.664;23.256;2023-05-23T03:01:04;3.17;;;1.92;;
6527;SDS011;64597;42.664;23.256;2023-05-23T03:03:30;6.20;;;3.63;;
6527;SDS011;64597;42.664;23.256;2023-05-23T03:05:56;9.38;;;3.20;;
6527;SDS011;64597;42.664;23.256;2023-05-23T03:08:22;7.82;;;4.25;;
6527;SDS011;64597;42.664;23.256;2023-05-23T03:10:48;8.35;;;3.70;;
6527;SDS011;64597;42.664;23.256;2023-05-23T03:13:13;6.20;;;3.20;;
6527;SDS011;64597;42.664;23.256;2023-05-23T03:15:40;5.55;;;2.15;;
6527;SDS011;64597;42.664;23.256;2023-05-23T03:18:05;4.28;;;2.35;;
6527;SDS011;64597;42.664;23.256;2023-05-23T03:20:31;4.75;;;2.90;;
6527;SDS011;64597;42.664;23.256;2023-05-23T03:22:56;6.25;;;3.38;;
6527;SDS011;64597;42.664;23.256;2023-05-23T03:25:21;4.68;;;2.88;;
6527;SDS011;64597;42.664;23.256;2023-05-23T03:27:47;3.53;;;2.53;;
6527;SDS011;64597;42.664;23.256;2023-05-23T03:30:12;6.57;;;2.83;;
6527;SDS011;64597;42.664;23.256;2023-05-23T03:32:38;2.88;;;2.08;;
6527;SDS011;64597;42.664;23.256;2023-05-23T03:35:03;4.75;;;2.60;;
6527;SDS011;64597;42.664;23.256;2023-05-23T03:37:29;4.00;;;2.42;;
6527;SDS011;64597;42.664;23.256;2023-05-23T03:39:55;5.55;;;2.53;;
6527;SDS011;64597;42.664;23.256;2023-05-23T03:42:20;4.55;;;2.50;;
6527;SDS011;64597;42.664;23.256;2023-05-23T03:44:45;3.53;;;2.53;;
6527;SDS011;64597;42.664;23.256;2023-05-23T03:47:11;5.25;;;2.88;;
6527;SDS011;64597;42.664;23.256;2023-05-23T03:49:36;3.90;;;2.30;;
6527;SDS011;64597;42.664;23.256;2023-05-23T03:52:02;5.72;;;2.85;;
6527;SDS011;64597;42.664;23.256;2023-05-23T03:54:28;6.03;;;2.50;;
6527;SDS011;64597;42.664;23.256;2023-05-23T03:56:53;4.28;;;2.83;;
6527;SDS011;64597;42.664;23.256;2023-05-23T03:59:19;5.20;;;3.28;;
6527;SDS011;64597;42.664;23.256;2023-05-23T04:01:44;7.45;;;3.05;;
6527;SDS011;64597;42.664;23.256;2023-05-23T04:04:09;6.53;;;3.13;;
6527;SDS011;64597;42.664;23.256;2023-05-23T04:06:35;9.00;;;3.42;;
6527;SDS011;64597;42.664;23.256;2023-05-23T04:09:00;6.20;;;3.28;;
6527;SDS011;64597;42.664;23.256;2023-05-23T04:11:27;3.72;;;3.28;;
6527;SDS011;64597;42.664;23.256;2023-05-23T04:13:52;8.95;;;4.22;;
6527;SDS011;64597;42.664;23.256;2023-05-23T04:16:18;8.20;;;4.00;;
6527;SDS011;64597;42.664;23.256;2023-05-23T04:18:43;9.80;;;5.13;;
6527;SDS011;64597;42.664;23.256;2023-05-23T04:21:11;13.70;;;6.05;;
6527;SDS011;64597;42.664;23.256;2023-05-23T04:23:36;14.63;;;5.30;;
6527;SDS011;64597;42.664;23.256;2023-05-23T04:26:02;10.07;;;5.70;;
6527;SDS011;64597;42.664;23.256;2023-05-23T04:28:29;12.10;;;6.32;;
6527;SDS011;64597;42.664;23.256;2023-05-23T04:30:55;12.90;;;6.60;;
6527;SDS011;64597;42.664;23.256;2023-05-23T04:33:22;14.68;;;7.13;;
6527;SDS011;64597;42.664;23.256;2023-05-23T04:35:48;11.55;;;6.97;;
6527;SDS011;64597;42.664;23.256;2023-05-23T04:38:14;13.88;;;7.20;;
6527;SDS011;64597;42.664;23.256;2023-05-23T04:40:39;11.30;;;6.32;;
6527;SDS011;64597;42.664;23.256;2023-05-23T04:43:05;12.15;;;7.07;;
6527;SDS011;64597;42.664;23.256;2023-05-23T04:45:33;15.48;;;7.22;;
6527;SDS011;64597;42.664;23.256;2023-05-23T04:47:58;16.80;;;6.65;;
6527;SDS011;64597;42.664;23.256;2023-05-23T04:50:24;15.23;;;7.90;;
6527;SDS011;64597;42.664;23.256;2023-05-23T04:52:49;15.93;;;8.35;;
6527;SDS011;64597;42.664;23.256;2023-05-23T04:55:15;16.60;;;8.68;;
6527;SDS011;64597;42.664;23.256;2023-05-23T04:57:40;14.52;;;8.57;;
6527;SDS011;64597;42.664;23.256;2023-05-23T05:00:06;16.88;;;8.07;;
6527;SDS011;64597;42.664;23.256;2023-05-23T05:02:34;16.98;;;9.60;;
6527;SDS011;64597;42.664;23.256;2023-05-23T05:05:00;15.50;;;7.82;;
6527;SDS011;64597;42.664;23.256;2023-05-23T05:07:26;14.98;;;8.18;;
6527;SDS011;64597;42.664;23.256;2023-05-23T05:09:53;13.70;;;7.80;;
6527;SDS011;64597;42.664;23.256;2023-05-23T05:12:19;17.30;;;8.60;;
6527;SDS011;64597;42.664;23.256;2023-05-23T05:14:44;16.38;;;8.13;;
6527;SDS011;64597;42.664;23.256;2023-05-23T05:17:09;14.50;;;8.05;;
6527;SDS011;64597;42.664;23.256;2023-05-23T05:19:35;15.98;;;9.18;;
6527;SDS011;64597;42.664;23.256;2023-05-23T05:22:01;16.85;;;8.63;;
6527;SDS011;64597;42.664;23.256;2023-05-23T05:24:26;15.45;;;8.48;;
6527;SDS011;64597;42.664;23.256;2023-05-23T05:26:53;15.25;;;8.55;;
6527;SDS011;64597;42.664;23.256;2023-05-23T05:29:18;16.55;;;9.38;;
6527;SDS011;64597;42.664;23.256;2023-05-23T05:31:44;15.57;;;8.27;;
6527;SDS011;64597;42.664;23.256;2023-05-23T05:34:10;15.23;;;9.10;;
6527;SDS011;64597;42.664;23.256;2023-05-23T05:36:36;15.13;;;7.63;;
6527;SDS011;64597;42.664;23.256;2023-05-23T05:39:01;20.05;;;9.23;;
6527;SDS011;64597;42.664;23.256;2023-05-23T05:41:26;18.23;;;9.45;;
6527;SDS011;64597;42.664;23.256;2023-05-23T05:43:52;14.48;;;7.97;;
6527;SDS011;64597;42.664;23.256;2023-05-23T05:46:17;16.38;;;8.52;;
6527;SDS011;64597;42.664;23.256;2023-05-23T05:48:44;17.05;;;9.05;;
6527;SDS011;64597;42.664;23.256;2023-05-23T05:51:10;15.35;;;8.40;;
6527;SDS011;64597;42.664;23.256;2023-05-23T05:53:35;18.73;;;9.80;;
6527;SDS011;64597;42.664;23.256;2023-05-23T05:56:01;20.80;;;9.57;;
6527;SDS011;64597;42.664;23.256;2023-05-23T05:58:26;17.05;;;9.38;;
6527;SDS011;64597;42.664;23.256;2023-05-23T06:00:52;20.25;;;10.23;;
6527;SDS011;64597;42.664;23.256;2023-05-23T06:03:18;17.33;;;9.65;;
6527;SDS011;64597;42.664;23.256;2023-05-23T06:05:44;22.40;;;12.10;;
6527;SDS011;64597;42.664;23.256;2023-05-23T06:08:09;18.52;;;10.88;;
6527;SDS011;64597;42.664;23.256;2023-05-23T06:10:36;25.48;;;11.82;;
6527;SDS011;64597;42.664;23.256;2023-05-23T06:13:03;19.00;;;9.65;;
6527;SDS011;64597;42.664;23.256;2023-05-23T06:15:28;21.50;;;10.55;;
6527;SDS011;64597;42.664;23.256;2023-05-23T06:17:54;21.48;;;10.45;;
6527;SDS011;64597;42.664;23.256;2023-05-23T06:20:20;26.70;;;11.77;;
6527;SDS011;64597;42.664;23.256;2023-05-23T06:22:45;23.27;;;11.43;;
6527;SDS011;64597;42.664;23.256;2023-05-23T06:25:11;26.02;;;10.68;;
6527;SDS011;64597;42.664;23.256;2023-05-23T06:27:36;18.17;;;10.55;;
6527;SDS011;64597;42.664;23.256;2023-05-23T06:30:03;21.75;;;10.80;;
6527;SDS011;64597;42.664;23.256;2023-05-23T06:32:29;20.17;;;10.27;;
6527;SDS011;64597;42.664;23.256;2023-05-23T06:34:54;17.42;;;10.00;;
6527;SDS011;64597;42.664;23.256;2023-05-23T06:37:19;20.40;;;10.48;;
6527;SDS011;64597;42.664;23.256;2023-05-23T06:39:45;18.50;;;10.77;;
6527;SDS011;64597;42.664;23.256;2023-05-23T06:42:10;19.35;;;10.05;;
6527;SDS011;64597;42.664;23.256;2023-05-23T06:44:36;19.08;;;10.55;;
6527;SDS011;64597;42.664;23.256;2023-05-23T06:47:01;19.90;;;10.25;;
6527;SDS011;64597;42.664;23.256;2023-05-23T06:49:27;18.60;;;9.43;;
6527;SDS011;64597;42.664;23.256;2023-05-23T06:51:52;18.42;;;9.80;;
6527;SDS011;64597;42.664;23.256;2023-05-23T06:54:18;16.23;;;9.82;;
6527;SDS011;64597;42.664;23.256;2023-05-23T06:56:43;12.23;;;8.85;;
6527;SDS011;64597;42.664;23.256;2023-05-23T06:59:09;10.68;;;7.15;;
6527;SDS011;64597;42.664;23.256;2023-05-23T07:01:35;13.98;;;7.35;;
6527;SDS011;64597;42.664;23.256;2023-05-23T07:04:00;16.95;;;8.73;;
6527;SDS011;64597;42.664;23.256;2023-05-23T07:06:26;14.40;;;8.32;;
6527;SDS011;64597;42.664;23.256;2023-05-23T07:08:52;18.42;;;8.88;;
6527;SDS011;64597;42.664;23.256;2023-05-23T07:11:19;16.33;;;8.30;;
6527;SDS011;64597;42.664;23.256;2023-05-23T07:13:46;17.10;;;9.00;;
6527;SDS011;64597;42.664;23.256;2023-05-23T07:16:11;15.65;;;9.57;;
6527;SDS011;64597;42.664;23.256;2023-05-23T07:18:37;15.68;;;10.00;;
6527;SDS011;64597;42.664;23.256;2023-05-23T07:21:02;15.85;;;9.55;;
6527;SDS011;64597;42.664;23.256;2023-05-23T07:23:31;18.95;;;9.98;;
6527;SDS011;64597;42.664;23.256;2023-05-23T07:25:56;17.95;;;11.38;;
6527;SDS011;64597;42.664;23.256;2023-05-23T07:28:22;17.38;;;10.32;;
6527;SDS011;64597;42.664;23.256;2023-05-23T07:30:47;15.82;;;10.52;;
6527;SDS011;64597;42.664;23.256;2023-05-23T07:33:14;10.68;;;7.65;;
6527;SDS011;64597;42.664;23.256;2023-05-23T07:35:40;16.63;;;10.45;;
6527;SDS011;64597;42.664;23.256;2023-05-23T07:38:05;14.10;;;8.73;;
6527;SDS011;64597;42.664;23.256;2023-05-23T07:40:31;18.25;;;9.45;;
6527;SDS011;64597;42.664;23.256;2023-05-23T07:42:56;16.90;;;9.70;;
6527;SDS011;64597;42.664;23.256;2023-05-23T07:45:24;14.93;;;8.98;;
6527;SDS011;64597;42.664;23.256;2023-05-23T07:47:49;15.88;;;8.40;;
6527;SDS011;64597;42.664;23.256;2023-05-23T07:50:15;17.10;;;9.98;;
6527;SDS011;64597;42.664;23.256;2023-05-23T07:52:41;13.57;;;8.20;;
6527;SDS011;64597;42.664;23.256;2023-05-23T07:55:07;11.93;;;6.90;;
6527;SDS011;64597;42.664;23.256;2023-05-23T07:57:33;12.20;;;7.72;;
6527;SDS011;64597;42.664;23.256;2023-05-23T07:59:58;14.15;;;9.25;;
6527;SDS011;64597;42.664;23.256;2023-05-23T08:02:24;17.75;;;9.18;;
6527;SDS011;64597;42.664;23.256;2023-05-23T08:04:49;12.30;;;8.18;;
6527;SDS011;64597;42.664;23.256;2023-05-23T08:07:15;16.60;;;8.77;;
6527;SDS011;64597;42.664;23.256;2023-05-23T08:09:40;18.60;;;9.52;;
6527;SDS011;64597;42.664;23.256;2023-05-23T08:12:06;12.98;;;9.65;;
6527;SDS011;64597;42.664;23.256;2023-05-23T08:14:33;12.00;;;7.93;;
6527;SDS011;64597;42.664;23.256;2023-05-23T08:16:59;13.77;;;8.63;;
6527;SDS011;64597;42.664;23.256;2023-05-23T08:19:24;15.75;;;8.43;;
6527;SDS011;64597;42.664;23.256;2023-05-23T08:21:50;15.93;;;10.05;;
6527;SDS011;64597;42.664;23.256;2023-05-23T08:24:17;15.68;;;9.38;;
6527;SDS011;64597;42.664;23.256;2023-05-23T08:26:43;14.05;;;8.55;;
6527;SDS011;64597;42.664;23.256;2023-05-23T08:29:08;12.68;;;7.95;;
6527;SDS011;64597;42.664;23.256;2023-05-23T08:31:34;15.85;;;8.48;;
6527;SDS011;64597;42.664;23.256;2023-05-23T08:34:00;13.60;;;9.48;;
6527;SDS011;64597;42.664;23.256;2023-05-23T08:36:25;13.98;;;9.50;;
6527;SDS011;64597;42.664;23.256;2023-05-23T08:38:51;15.77;;;9.13;;
6527;SDS011;64597;42.664;23.256;2023-05-23T08:41:20;17.27;;;11.32;;
6527;SDS011;64597;42.664;23.256;2023-05-23T08:43:48;18.77;;;11.77;;
6527;SDS011;64597;42.664;23.256;2023-05-23T08:46:14;24.48;;;11.48;;
6527;SDS011;64597;42.664;23.256;2023-05-23T08:48:41;19.40;;;11.52;;
6527;SDS011;64597;42.664;23.256;2023-05-23T08:51:10;13.27;;;10.00;;
6527;SDS011;64597;42.664;23.256;2023-05-23T08:53:41;19.38;;;9.55;;
6527;SDS011;64597;42.664;23.256;2023-05-23T08:56:11;12.85;;;8.68;;
6527;SDS011;64597;42.664;23.256;2023-05-23T08:58:37;13.52;;;8.15;;
6527;SDS011;64597;42.664;23.256;2023-05-23T09:01:06;13.02;;;8.52;;
6527;SDS011;64597;42.664;23.256;2023-05-23T09:03:34;14.75;;;7.90;;
6527;SDS011;64597;42.664;23.256;2023-05-23T09:06:07;12.13;;;8.13;;
6527;SDS011;64597;42.664;23.256;2023-05-23T09:08:34;8.85;;;5.70;;
6527;SDS011;64597;42.664;23.256;2023-05-23T09:11:01;9.25;;;6.93;;
6527;SDS011;64597;42.664;23.256;2023-05-23T09:13:31;14.60;;;7.47;;
6527;SDS011;64597;42.664;23.256;2023-05-23T09:18:33;6.60;;;4.35;;
6527;SDS011;64597;42.664;23.256;2023-05-23T09:21:00;7.15;;;4.65;;
6527;SDS011;64597;42.664;23.256;2023-05-23T09:23:28;7.10;;;3.97;;
6527;SDS011;64597;42.664;23.256;2023-05-23T09:25:54;5.60;;;3.75;;
6527;SDS011;64597;42.664;23.256;2023-05-23T09:28:20;4.40;;;3.53;;
6527;SDS011;64597;42.664;23.256;2023-05-23T09:30:45;3.92;;;3.35;;
6527;SDS011;64597;42.664;23.256;2023-05-23T09:33:12;4.25;;;3.00;;
6527;SDS011;64597;42.664;23.256;2023-05-23T09:38:08;4.30;;;2.90;;
6527;SDS011;64597;42.664;23.256;2023-05-23T09:40:34;6.00;;;3.35;;
6527;SDS011;64597;42.664;23.256;2023-05-23T09:43:03;4.45;;;3.25;;
6527;SDS011;64597;42.664;23.256;2023-05-23T09:45:29;3.90;;;2.95;;
6527;SDS011;64597;42.664;23.256;2023-05-23T09:47:56;4.88;;;3.13;;
6527;SDS011;64597;42.664;23.256;2023-05-23T09:50:22;3.65;;;2.92;;
6527;SDS011;64597;42.664;23.256;2023-05-23T09:52:48;5.28;;;2.72;;
6527;SDS011;64597;42.664;23.256;2023-05-23T09:55:15;5.00;;;2.60;;
6527;SDS011;64597;42.664;23.256;2023-05-23T09:57:41;5.68;;;3.00;;
6527;SDS011;64597;42.664;23.256;2023-05-23T10:00:08;4.72;;;3.03;;
6527;SDS011;64597;42.664;23.256;2023-05-23T10:05:46;4.97;;;2.55;;
6527;SDS011;64597;42.664;23.256;2023-05-23T10:13:24;3.65;;;2.90;;
6527;SDS011;64597;42.664;23.256;2023-05-23T10:15:54;7.38;;;3.15;;
6527;SDS011;64597;42.664;23.256;2023-05-23T10:18:25;3.03;;;2.65;;
6527;SDS011;64597;42.664;23.256;2023-05-23T10:20:53;4.35;;;2.63;;
6527;SDS011;64597;42.664;23.256;2023-05-23T10:23:27;6.10;;;3.22;;
6527;SDS011;64597;42.664;23.256;2023-05-23T10:25:54;6.18;;;3.20;;
6527;SDS011;64597;42.664;23.256;2023-05-23T10:28:19;3.83;;;3.00;;
6527;SDS011;64597;42.664;23.256;2023-05-23T10:30:45;4.90;;;2.95;;
6527;SDS011;64597;42.664;23.256;2023-05-23T10:33:13;5.10;;;2.80;;
6527;SDS011;64597;42.664;23.256;2023-05-23T10:35:55;6.28;;;2.80;;
6527;SDS011;64597;42.664;23.256;2023-05-23T10:41:10;5.28;;;3.08;;
6527;SDS011;64597;42.664;23.256;2023-05-23T10:49:17;8.70;;;3.38;;
6527;SDS011;64597;42.664;23.256;2023-05-23T10:51:42;3.28;;;2.63;;
6527;SDS011;64597;42.664;23.256;2023-05-23T10:54:14;5.57;;;2.90;;
6527;SDS011;64597;42.664;23.256;2023-05-23T10:56:39;4.57;;;2.55;;
6527;SDS011;64597;42.664;23.256;2023-05-23T10:59:05;3.60;;;2.90;;
6527;SDS011;64597;42.664;23.256;2023-05-23T11:01:30;3.83;;;2.70;;
6527;SDS011;64597;42.664;23.256;2023-05-23T11:03:56;4.35;;;2.85;;
6527;SDS011;64597;42.664;23.256;2023-05-23T11:09:03;3.83;;;2.42;;
6527;SDS011;64597;42.664;23.256;2023-05-23T11:19:37;3.88;;;2.70;;
6527;SDS011;64597;42.664;23.256;2023-05-23T11:22:05;3.92;;;2.30;;
6527;SDS011;64597;42.664;23.256;2023-05-23T11:24:54;3.78;;;2.53;;
6527;SDS011;64597;42.664;23.256;2023-05-23T11:27:32;4.00;;;2.67;;
6527;SDS011;64597;42.664;23.256;2023-05-23T11:32:29;3.53;;;2.60;;
6527;SDS011;64597;42.664;23.256;2023-05-23T11:35:01;4.70;;;2.75;;
6527;SDS011;64597;42.664;23.256;2023-05-23T11:37:28;3.35;;;2.60;;
6527;SDS011;64597;42.664;23.256;2023-05-23T11:39:54;3.55;;;2.85;;
6527;SDS011;64597;42.664;23.256;2023-05-23T11:42:21;5.60;;;3.30;;
6527;SDS011;64597;42.664;23.256;2023-05-23T11:44:48;5.10;;;3.00;;
6527;SDS011;64597;42.664;23.256;2023-05-23T11:47:14;4.00;;;2.85;;
6527;SDS011;64597;42.664;23.256;2023-05-23T11:49:40;3.47;;;2.55;;
6527;SDS011;64597;42.664;23.256;2023-05-23T11:52:09;3.40;;;2.40;;
6527;SDS011;64597;42.664;23.256;2023-05-23T11:54:35;3.22;;;2.50;;
6527;SDS011;64597;42.664;23.256;2023-05-23T11:57:00;6.20;;;2.95;;
6527;SDS011;64597;42.664;23.256;2023-05-23T11:59:27;5.35;;;2.40;;
6527;SDS011;64597;42.664;23.256;2023-05-23T12:01:54;3.72;;;2.42;;
6527;SDS011;64597;42.664;23.256;2023-05-23T12:04:20;4.00;;;2.47;;
6527;SDS011;64597;42.664;23.256;2023-05-23T12:06:46;3.35;;;2.55;;
6527;SDS011;64597;42.664;23.256;2023-05-23T12:09:12;6.57;;;2.80;;
6527;SDS011;64597;42.664;23.256;2023-05-23T12:11:39;3.40;;;2.60;;
6527;SDS011;64597;42.664;23.256;2023-05-23T12:14:12;4.47;;;2.53;;
6527;SDS011;64597;42.664;23.256;2023-05-23T12:16:39;3.03;;;2.13;;
6527;SDS011;64597;42.664;23.256;2023-05-23T12:19:07;4.05;;;2.60;;
6527;SDS011;64597;42.664;23.256;2023-05-23T12:21:39;3.90;;;2.65;;
6527;SDS011;64597;42.664;23.256;2023-05-23T12:24:11;3.97;;;2.55;;
6527;SDS011;64597;42.664;23.256;2023-05-23T12:26:57;2.85;;;2.28;;
6527;SDS011;64597;42.664;23.256;2023-05-23T12:29:31;5.78;;;3.08;;
6527;SDS011;64597;42.664;23.256;2023-05-23T12:31:59;4.93;;;2.78;;
6527;SDS011;64597;42.664;23.256;2023-05-23T12:34:26;3.78;;;2.78;;
6527;SDS011;64597;42.664;23.256;2023-05-23T12:36:58;4.50;;;2.85;;
6527;SDS011;64597;42.664;23.256;2023-05-23T12:39:27;3.92;;;2.90;;
6527;SDS011;64597;42.664;23.256;2023-05-23T12:41:54;3.17;;;2.42;;
6527;SDS011;64597;42.664;23.256;2023-05-23T12:44:23;4.00;;;2.72;;
6527;SDS011;64597;42.664;23.256;2023-05-23T12:46:53;2.90;;;2.25;;
6527;SDS011;64597;42.664;23.256;2023-05-23T12:49:19;3.55;;;2.97;;
6527;SDS011;64597;42.664;23.256;2023-05-23T12:51:45;4.85;;;2.75;;
6527;SDS011;64597;42.664;23.256;2023-05-23T12:54:11;3.80;;;2.53;;
6527;SDS011;64597;42.664;23.256;2023-05-23T12:56:36;4.85;;;3.42;;
6527;SDS011;64597;42.664;23.256;2023-05-23T12:59:02;3.88;;;2.58;;
6527;SDS011;64597;42.664;23.256;2023-05-23T13:01:28;5.05;;;2.72;;
6527;SDS011;64597;42.664;23.256;2023-05-23T13:03:54;5.45;;;2.83;;
6527;SDS011;64597;42.664;23.256;2023-05-23T13:06:19;5.13;;;2.90;;
6527;SDS011;64597;42.664;23.256;2023-05-23T13:08:45;5.13;;;3.15;;
6527;SDS011;64597;42.664;23.256;2023-05-23T13:11:12;4.80;;;2.78;;
6527;SDS011;64597;42.664;23.256;2023-05-23T13:13:38;5.05;;;2.80;;
6527;SDS011;64597;42.664;23.256;2023-05-23T13:16:03;3.10;;;2.63;;
6527;SDS011;64597;42.664;23.256;2023-05-23T13:18:29;5.00;;;2.50;;
6527;SDS011;64597;42.664;23.256;2023-05-23T13:20:55;4.10;;;2.47;;
6527;SDS011;64597;42.664;23.256;2023-05-23T13:23:20;2.92;;;2.15;;
6527;SDS011;64597;42.664;23.256;2023-05-23T13:25:46;3.50;;;2.67;;
6527;SDS011;64597;42.664;23.256;2023-05-23T13:28:11;4.70;;;2.30;;
6527;SDS011;64597;42.664;23.256;2023-05-23T13:30:37;6.95;;;2.35;;
6527;SDS011;64597;42.664;23.256;2023-05-23T13:33:02;3.08;;;2.28;;
6527;SDS011;64597;42.664;23.256;2023-05-23T13:35:28;3.90;;;2.80;;
6527;SDS011;64597;42.664;23.256;2023-05-23T13:37:54;5.47;;;2.33;;
6527;SDS011;64597;42.664;23.256;2023-05-23T13:40:20;2.80;;;2.13;;
6527;SDS011;64597;42.664;23.256;2023-05-23T13:42:46;4.43;;;2.47;;
6527;SDS011;64597;42.664;23.256;2023-05-23T13:45:13;6.97;;;2.78;;
6527;SDS011;64597;42.664;23.256;2023-05-23T13:47:38;3.28;;;2.50;;
6527;SDS011;64597;42.664;23.256;2023-05-23T13:50:04;3.25;;;2.47;;
6527;SDS011;64597;42.664;23.256;2023-05-23T13:52:30;3.45;;;2.25;;
6527;SDS011;64597;42.664;23.256;2023-05-23T13:54:55;4.45;;;2.40;;
6527;SDS011;64597;42.664;23.256;2023-05-23T13:57:21;7.30;;;2.92;;
6527;SDS011;64597;42.664;23.256;2023-05-23T13:59:47;4.63;;;2.53;;
6527;SDS011;64597;42.664;23.256;2023-05-23T14:02:12;4.97;;;2.50;;
6527;SDS011;64597;42.664;23.256;2023-05-23T14:04:37;5.55;;;2.75;;
6527;SDS011;64597;42.664;23.256;2023-05-23T14:07:03;4.07;;;2.58;;
6527;SDS011;64597;42.664;23.256;2023-05-23T14:09:28;3.97;;;2.17;;
6527;SDS011;64597;42.664;23.256;2023-05-23T14:11:54;3.90;;;2.30;;
6527;SDS011;64597;42.664;23.256;2023-05-23T14:14:20;4.68;;;2.40;;
6527;SDS011;64597;42.664;23.256;2023-05-23T14:16:45;4.35;;;2.45;;
6527;SDS011;64597;42.664;23.256;2023-05-23T14:19:10;3.40;;;2.33;;
6527;SDS011;64597;42.664;23.256;2023-05-23T14:21:36;5.32;;;2.67;;
6527;SDS011;64597;42.664;23.256;2023-05-23T14:24:02;3.88;;;2.10;;
6527;SDS011;64597;42.664;23.256;2023-05-23T14:26:28;2.88;;;2.45;;
6527;SDS011;64597;42.664;23.256;2023-05-23T14:28:54;4.80;;;2.22;;
6527;SDS011;64597;42.664;23.256;2023-05-23T14:31:20;3.88;;;2.33;;
6527;SDS011;64597;42.664;23.256;2023-05-23T14:33:46;4.43;;;2.20;;
6527;SDS011;64597;42.664;23.256;2023-05-23T14:38:39;4.43;;;2.60;;
6527;SDS011;64597;42.664;23.256;2023-05-23T14:41:04;5.68;;;2.85;;
6527;SDS011;64597;42.664;23.256;2023-05-23T14:43:30;5.22;;;2.53;;
6527;SDS011;64597;42.664;23.256;2023-05-23T14:45:55;5.00;;;2.67;;
6527;SDS011;64597;42.664;23.256;2023-05-23T14:48:24;4.97;;;2.25;;
6527;SDS011;64597;42.664;23.256;2023-05-23T14:50:50;5.00;;;2.63;;
6527;SDS011;64597;42.664;23.256;2023-05-23T14:53:16;4.45;;;2.65;;
6527;SDS011;64597;42.664;23.256;2023-05-23T14:55:45;4.03;;;3.33;;
6527;SDS011;64597;42.664;23.256;2023-05-23T14:58:11;4.43;;;2.72;;
6527;SDS011;64597;42.664;23.256;2023-05-23T15:00:36;3.55;;;2.72;;
6527;SDS011;64597;42.664;23.256;2023-05-23T15:03:05;3.75;;;2.90;;
6527;SDS011;64597;42.664;23.256;2023-05-23T15:05:31;6.82;;;3.00;;
6527;SDS011;64597;42.664;23.256;2023-05-23T15:07:57;3.80;;;2.65;;
6527;SDS011;64597;42.664;23.256;2023-05-23T15:10:25;5.38;;;2.70;;
6527;SDS011;64597;42.664;23.256;2023-05-23T15:12:50;4.55;;;2.50;;
6527;SDS011;64597;42.664;23.256;2023-05-23T15:15:16;3.75;;;2.70;;
6527;SDS011;64597;42.664;23.256;2023-05-23T15:17:46;3.20;;;2.50;;
6527;SDS011;64597;42.664;23.256;2023-05-23T15:20:12;3.13;;;2.45;;
6527;SDS011;64597;42.664;23.256;2023-05-23T15:22:38;4.03;;;2.75;;
6527;SDS011;64597;42.664;23.256;2023-05-23T15:25:04;7.68;;;3.03;;
6527;SDS011;64597;42.664;23.256;2023-05-23T15:27:33;4.82;;;2.70;;
6527;SDS011;64597;42.664;23.256;2023-05-23T15:29:59;3.65;;;2.60;;